sensor_id;sensor_type;location;lat;lon;timestamp;P1;durP1;ratioP1;P2;durP2;ratioP2
6394;SDS011;3230;42.588;23.358;2023-03-23T00:01:01;13.48;;;5.60;;
6394;SDS011;3230;42.588;23.358;2023-03-23T00:03:26;8.60;;;5.30;;
6394;SDS011;3230;42.588;23.358;2023-03-23T00:05:54;6.70;;;4.85;;
6394;SDS011;3230;42.588;23.358;2023-03-23T00:08:24;7.55;;;5.32;;
6394;SDS011;3230;42.588;23.358;2023-03-23T00:10:51;6.10;;;4.70;;
6394;SDS011;3230;42.588;23.358;2023-03-23T00:13:18;6.43;;;4.60;;
6394;SDS011;3230;42.588;23.358;2023-03-23T00:15:45;11.63;;;8.05;;
6394;SDS011;3230;42.588;23.358;2023-03-23T00:18:14;10.75;;;6.50;;
6394;SDS011;3230;42.588;23.358;2023-03-23T00:20:56;13.73;;;7.50;;
6394;SDS011;3230;42.588;23.358;2023-03-23T00:23:25;15.43;;;7.65;;
6394;SDS011;3230;42.588;23.358;2023-03-23T00:25:52;18.83;;;12.30;;
6394;SDS011;3230;42.588;23.358;2023-03-23T00:28:24;12.35;;;9.15;;
6394;SDS011;3230;42.588;23.358;2023-03-23T00:31:01;14.68;;;7.32;;
6394;SDS011;3230;42.588;23.358;2023-03-23T00:33:29;12.82;;;7.30;;
6394;SDS011;3230;42.588;23.358;2023-03-23T00:36:12;12.18;;;6.78;;
6394;SDS011;3230;42.588;23.358;2023-03-23T00:38:39;12.70;;;6.80;;
6394;SDS011;3230;42.588;23.358;2023-03-23T00:41:07;11.07;;;6.25;;
6394;SDS011;3230;42.588;23.358;2023-03-23T00:43:33;8.63;;;5.35;;
6394;SDS011;3230;42.588;23.358;2023-03-23T00:46:01;9.63;;;6.18;;
6394;SDS011;3230;42.588;23.358;2023-03-23T00:48:33;8.95;;;6.00;;
6394;SDS011;3230;42.588;23.358;2023-03-23T00:51:00;10.95;;;5.80;;
6394;SDS011;3230;42.588;23.358;2023-03-23T00:53:31;9.70;;;6.40;;
6394;SDS011;3230;42.588;23.358;2023-03-23T00:55:57;11.27;;;6.28;;
6394;SDS011;3230;42.588;23.358;2023-03-23T00:58:22;13.47;;;7.97;;
6394;SDS011;3230;42.588;23.358;2023-03-23T01:00:48;17.17;;;9.70;;
6394;SDS011;3230;42.588;23.358;2023-03-23T01:03:13;23.10;;;11.50;;
6394;SDS011;3230;42.588;23.358;2023-03-23T01:05:43;22.27;;;10.93;;
6394;SDS011;3230;42.588;23.358;2023-03-23T01:08:12;64.63;;;14.55;;
6394;SDS011;3230;42.588;23.358;2023-03-23T01:10:38;96.80;;;18.02;;
6394;SDS011;3230;42.588;23.358;2023-03-23T01:13:05;118.63;;;19.63;;
6394;SDS011;3230;42.588;23.358;2023-03-23T01:15:31;40.53;;;17.13;;
6394;SDS011;3230;42.588;23.358;2023-03-23T01:17:56;90.27;;;17.70;;
6394;SDS011;3230;42.588;23.358;2023-03-23T01:20:23;115.07;;;19.47;;
6394;SDS011;3230;42.588;23.358;2023-03-23T01:22:51;143.98;;;20.40;;
6394;SDS011;3230;42.588;23.358;2023-03-23T01:25:18;39.42;;;16.42;;
6394;SDS011;3230;42.588;23.358;2023-03-23T01:27:44;30.00;;;14.25;;
6394;SDS011;3230;42.588;23.358;2023-03-23T01:30:11;20.93;;;12.33;;
6394;SDS011;3230;42.588;23.358;2023-03-23T01:32:37;22.63;;;11.70;;
6394;SDS011;3230;42.588;23.358;2023-03-23T01:35:03;30.27;;;13.40;;
6394;SDS011;3230;42.588;23.358;2023-03-23T01:37:29;24.70;;;12.97;;
6394;SDS011;3230;42.588;23.358;2023-03-23T01:39:56;28.88;;;14.85;;
6394;SDS011;3230;42.588;23.358;2023-03-23T01:42:22;31.63;;;14.95;;
6394;SDS011;3230;42.588;23.358;2023-03-23T01:47:20;44.73;;;16.20;;
6394;SDS011;3230;42.588;23.358;2023-03-23T01:49:49;41.70;;;15.93;;
6394;SDS011;3230;42.588;23.358;2023-03-23T01:52:16;29.63;;;14.50;;
6394;SDS011;3230;42.588;23.358;2023-03-23T01:54:46;24.83;;;13.38;;
6394;SDS011;3230;42.588;23.358;2023-03-23T01:57:14;24.45;;;13.57;;
6394;SDS011;3230;42.588;23.358;2023-03-23T01:59:42;24.25;;;12.90;;
6394;SDS011;3230;42.588;23.358;2023-03-23T02:02:10;26.48;;;13.10;;
6394;SDS011;3230;42.588;23.358;2023-03-23T02:04:36;27.05;;;12.27;;
6394;SDS011;3230;42.588;23.358;2023-03-23T02:07:02;24.42;;;12.15;;
6394;SDS011;3230;42.588;23.358;2023-03-23T02:09:29;24.05;;;12.07;;
6394;SDS011;3230;42.588;23.358;2023-03-23T02:11:55;20.60;;;11.68;;
6394;SDS011;3230;42.588;23.358;2023-03-23T02:14:21;18.33;;;11.15;;
6394;SDS011;3230;42.588;23.358;2023-03-23T02:19:37;15.55;;;9.00;;
6394;SDS011;3230;42.588;23.358;2023-03-23T02:31:01;18.52;;;9.82;;
6394;SDS011;3230;42.588;23.358;2023-03-23T02:36:36;14.25;;;8.75;;
6394;SDS011;3230;42.588;23.358;2023-03-23T02:42:07;15.05;;;8.55;;
6394;SDS011;3230;42.588;23.358;2023-03-23T02:44:36;16.75;;;9.15;;
6394;SDS011;3230;42.588;23.358;2023-03-23T02:47:04;27.33;;;12.20;;
6394;SDS011;3230;42.588;23.358;2023-03-23T02:49:34;17.23;;;9.70;;
6394;SDS011;3230;42.588;23.358;2023-03-23T02:52:10;18.42;;;9.55;;
6394;SDS011;3230;42.588;23.358;2023-03-23T02:54:41;18.15;;;9.90;;
6394;SDS011;3230;42.588;23.358;2023-03-23T02:57:09;15.93;;;9.18;;
6394;SDS011;3230;42.588;23.358;2023-03-23T02:59:35;19.73;;;10.73;;
6394;SDS011;3230;42.588;23.358;2023-03-23T03:02:10;34.10;;;14.60;;
6394;SDS011;3230;42.588;23.358;2023-03-23T03:04:59;63.72;;;21.77;;
6394;SDS011;3230;42.588;23.358;2023-03-23T03:07:36;56.28;;;19.27;;
6394;SDS011;3230;42.588;23.358;2023-03-23T03:18:38;27.35;;;11.60;;
6394;SDS011;3230;42.588;23.358;2023-03-23T03:21:11;27.58;;;12.98;;
6394;SDS011;3230;42.588;23.358;2023-03-23T03:23:39;28.55;;;11.88;;
6394;SDS011;3230;42.588;23.358;2023-03-23T03:26:08;26.98;;;11.90;;
6394;SDS011;3230;42.588;23.358;2023-03-23T03:28:37;22.75;;;10.60;;
6394;SDS011;3230;42.588;23.358;2023-03-23T03:31:03;15.83;;;8.47;;
6394;SDS011;3230;42.588;23.358;2023-03-23T03:33:30;11.13;;;7.07;;
6394;SDS011;3230;42.588;23.358;2023-03-23T03:35:59;11.65;;;7.45;;
6394;SDS011;3230;42.588;23.358;2023-03-23T03:38:26;14.25;;;7.38;;
6394;SDS011;3230;42.588;23.358;2023-03-23T03:40:52;12.65;;;7.20;;
6394;SDS011;3230;42.588;23.358;2023-03-23T03:43:19;13.32;;;6.82;;
6394;SDS011;3230;42.588;23.358;2023-03-23T03:45:44;11.90;;;6.97;;
6394;SDS011;3230;42.588;23.358;2023-03-23T03:48:10;16.83;;;7.10;;
6394;SDS011;3230;42.588;23.358;2023-03-23T03:50:36;11.15;;;6.57;;
6394;SDS011;3230;42.588;23.358;2023-03-23T03:53:02;11.73;;;6.70;;
6394;SDS011;3230;42.588;23.358;2023-03-23T03:55:28;16.93;;;8.83;;
6394;SDS011;3230;42.588;23.358;2023-03-23T03:57:54;13.27;;;8.10;;
6394;SDS011;3230;42.588;23.358;2023-03-23T04:00:20;11.90;;;7.50;;
6394;SDS011;3230;42.588;23.358;2023-03-23T04:02:48;10.65;;;6.30;;
6394;SDS011;3230;42.588;23.358;2023-03-23T04:05:19;15.93;;;8.05;;
6394;SDS011;3230;42.588;23.358;2023-03-23T04:07:45;14.10;;;7.80;;
6394;SDS011;3230;42.588;23.358;2023-03-23T04:10:14;15.15;;;8.40;;
6394;SDS011;3230;42.588;23.358;2023-03-23T04:12:40;18.48;;;9.73;;
6394;SDS011;3230;42.588;23.358;2023-03-23T04:15:06;17.73;;;9.33;;
6394;SDS011;3230;42.588;23.358;2023-03-23T04:17:32;16.08;;;8.70;;
6394;SDS011;3230;42.588;23.358;2023-03-23T04:19:59;14.82;;;8.55;;
6394;SDS011;3230;42.588;23.358;2023-03-23T04:22:25;14.40;;;8.20;;
6394;SDS011;3230;42.588;23.358;2023-03-23T04:24:55;15.93;;;8.45;;
6394;SDS011;3230;42.588;23.358;2023-03-23T04:27:25;17.48;;;8.82;;
6394;SDS011;3230;42.588;23.358;2023-03-23T04:29:53;18.67;;;9.48;;
6394;SDS011;3230;42.588;23.358;2023-03-23T04:32:20;14.50;;;8.73;;
6394;SDS011;3230;42.588;23.358;2023-03-23T04:34:46;17.13;;;10.00;;
6394;SDS011;3230;42.588;23.358;2023-03-23T04:37:11;21.57;;;11.50;;
6394;SDS011;3230;42.588;23.358;2023-03-23T04:39:38;50.75;;;25.17;;
6394;SDS011;3230;42.588;23.358;2023-03-23T04:42:05;40.47;;;19.65;;
6394;SDS011;3230;42.588;23.358;2023-03-23T04:44:30;33.60;;;17.27;;
6394;SDS011;3230;42.588;23.358;2023-03-23T04:46:57;30.20;;;15.52;;
6394;SDS011;3230;42.588;23.358;2023-03-23T04:49:26;28.05;;;15.68;;
6394;SDS011;3230;42.588;23.358;2023-03-23T04:51:52;29.80;;;15.17;;
6394;SDS011;3230;42.588;23.358;2023-03-23T04:54:17;23.40;;;13.63;;
6394;SDS011;3230;42.588;23.358;2023-03-23T04:56:43;25.87;;;14.20;;
6394;SDS011;3230;42.588;23.358;2023-03-23T04:59:08;27.10;;;14.63;;
6394;SDS011;3230;42.588;23.358;2023-03-23T05:01:33;25.47;;;14.20;;
6394;SDS011;3230;42.588;23.358;2023-03-23T05:04:03;24.50;;;12.30;;
6394;SDS011;3230;42.588;23.358;2023-03-23T05:06:29;22.00;;;13.27;;
6394;SDS011;3230;42.588;23.358;2023-03-23T05:08:54;25.10;;;14.60;;
6394;SDS011;3230;42.588;23.358;2023-03-23T05:11:20;23.43;;;11.60;;
6394;SDS011;3230;42.588;23.358;2023-03-23T05:13:46;20.63;;;11.00;;
6394;SDS011;3230;42.588;23.358;2023-03-23T05:16:11;20.27;;;10.83;;
6394;SDS011;3230;42.588;23.358;2023-03-23T05:18:37;20.10;;;10.10;;
6394;SDS011;3230;42.588;23.358;2023-03-23T05:21:02;21.80;;;10.83;;
6394;SDS011;3230;42.588;23.358;2023-03-23T05:23:29;18.40;;;10.10;;
6394;SDS011;3230;42.588;23.358;2023-03-23T05:25:56;16.90;;;10.10;;
6394;SDS011;3230;42.588;23.358;2023-03-23T05:28:25;16.58;;;10.18;;
6394;SDS011;3230;42.588;23.358;2023-03-23T05:30:51;13.55;;;8.57;;
6394;SDS011;3230;42.588;23.358;2023-03-23T05:33:18;14.77;;;9.43;;
6394;SDS011;3230;42.588;23.358;2023-03-23T05:35:45;12.98;;;8.13;;
6394;SDS011;3230;42.588;23.358;2023-03-23T05:38:12;10.33;;;7.10;;
6394;SDS011;3230;42.588;23.358;2023-03-23T05:40:37;10.00;;;6.50;;
6394;SDS011;3230;42.588;23.358;2023-03-23T05:43:03;8.70;;;5.93;;
6394;SDS011;3230;42.588;23.358;2023-03-23T05:45:28;10.60;;;6.70;;
6394;SDS011;3230;42.588;23.358;2023-03-23T05:47:53;10.00;;;6.30;;
6394;SDS011;3230;42.588;23.358;2023-03-23T05:50:19;8.67;;;6.03;;
6394;SDS011;3230;42.588;23.358;2023-03-23T05:52:45;9.87;;;6.33;;
6394;SDS011;3230;42.588;23.358;2023-03-23T05:55:10;10.07;;;6.40;;
6394;SDS011;3230;42.588;23.358;2023-03-23T05:57:36;8.90;;;6.17;;
6394;SDS011;3230;42.588;23.358;2023-03-23T06:00:02;9.53;;;6.00;;
6394;SDS011;3230;42.588;23.358;2023-03-23T06:02:36;6.83;;;5.40;;
6394;SDS011;3230;42.588;23.358;2023-03-23T06:05:02;7.73;;;5.40;;
6394;SDS011;3230;42.588;23.358;2023-03-23T06:07:27;8.50;;;4.93;;
6394;SDS011;3230;42.588;23.358;2023-03-23T06:09:53;7.60;;;4.80;;
6394;SDS011;3230;42.588;23.358;2023-03-23T06:12:18;7.60;;;5.53;;
6394;SDS011;3230;42.588;23.358;2023-03-23T06:14:47;7.53;;;4.87;;
6394;SDS011;3230;42.588;23.358;2023-03-23T06:17:14;6.50;;;4.30;;
6394;SDS011;3230;42.588;23.358;2023-03-23T06:19:41;6.67;;;4.57;;
6394;SDS011;3230;42.588;23.358;2023-03-23T06:22:07;6.73;;;4.17;;
6394;SDS011;3230;42.588;23.358;2023-03-23T06:24:32;5.77;;;4.50;;
6394;SDS011;3230;42.588;23.358;2023-03-23T06:26:58;4.90;;;3.93;;
6394;SDS011;3230;42.588;23.358;2023-03-23T06:29:24;5.10;;;4.00;;
6394;SDS011;3230;42.588;23.358;2023-03-23T06:31:51;5.30;;;3.87;;
6394;SDS011;3230;42.588;23.358;2023-03-23T06:34:19;5.50;;;3.90;;
6394;SDS011;3230;42.588;23.358;2023-03-23T06:36:45;5.10;;;3.70;;
6394;SDS011;3230;42.588;23.358;2023-03-23T06:39:11;6.10;;;4.33;;
6394;SDS011;3230;42.588;23.358;2023-03-23T06:41:37;5.50;;;4.50;;
6394;SDS011;3230;42.588;23.358;2023-03-23T06:44:02;6.80;;;4.70;;
6394;SDS011;3230;42.588;23.358;2023-03-23T06:46:28;6.23;;;4.10;;
6394;SDS011;3230;42.588;23.358;2023-03-23T06:48:53;7.27;;;4.20;;
6394;SDS011;3230;42.588;23.358;2023-03-23T06:51:19;4.80;;;3.70;;
6394;SDS011;3230;42.588;23.358;2023-03-23T06:53:46;5.60;;;4.10;;
6394;SDS011;3230;42.588;23.358;2023-03-23T06:56:11;5.33;;;3.83;;
6394;SDS011;3230;42.588;23.358;2023-03-23T06:58:38;5.73;;;3.90;;
6394;SDS011;3230;42.588;23.358;2023-03-23T07:01:04;6.80;;;4.10;;
6394;SDS011;3230;42.588;23.358;2023-03-23T07:03:30;7.47;;;4.20;;
6394;SDS011;3230;42.588;23.358;2023-03-23T07:05:56;5.30;;;3.83;;
6394;SDS011;3230;42.588;23.358;2023-03-23T07:08:22;5.17;;;3.87;;
6394;SDS011;3230;42.588;23.358;2023-03-23T07:10:50;4.60;;;4.03;;
6394;SDS011;3230;42.588;23.358;2023-03-23T07:13:17;5.20;;;4.23;;
6394;SDS011;3230;42.588;23.358;2023-03-23T07:15:43;6.60;;;3.93;;
6394;SDS011;3230;42.588;23.358;2023-03-23T07:18:09;6.37;;;4.57;;
6394;SDS011;3230;42.588;23.358;2023-03-23T07:20:35;6.60;;;4.07;;
6394;SDS011;3230;42.588;23.358;2023-03-23T07:23:01;7.47;;;5.13;;
6394;SDS011;3230;42.588;23.358;2023-03-23T07:25:30;6.03;;;4.53;;
6394;SDS011;3230;42.588;23.358;2023-03-23T07:27:57;6.10;;;4.97;;
6394;SDS011;3230;42.588;23.358;2023-03-23T07:30:23;6.10;;;4.90;;
6394;SDS011;3230;42.588;23.358;2023-03-23T07:32:49;5.70;;;4.93;;
6394;SDS011;3230;42.588;23.358;2023-03-23T07:35:15;7.53;;;4.83;;
6394;SDS011;3230;42.588;23.358;2023-03-23T07:37:41;5.17;;;4.50;;
6394;SDS011;3230;42.588;23.358;2023-03-23T07:40:07;4.60;;;4.10;;
6394;SDS011;3230;42.588;23.358;2023-03-23T07:42:33;5.67;;;4.47;;
6394;SDS011;3230;42.588;23.358;2023-03-23T07:44:59;6.33;;;5.03;;
6394;SDS011;3230;42.588;23.358;2023-03-23T07:47:25;7.37;;;4.70;;
6394;SDS011;3230;42.588;23.358;2023-03-23T07:49:51;7.87;;;4.90;;
6394;SDS011;3230;42.588;23.358;2023-03-23T07:52:16;8.53;;;5.27;;
6394;SDS011;3230;42.588;23.358;2023-03-23T07:54:42;8.67;;;5.70;;
6394;SDS011;3230;42.588;23.358;2023-03-23T07:57:08;8.60;;;7.00;;
6394;SDS011;3230;42.588;23.358;2023-03-23T07:59:33;7.70;;;6.23;;
6394;SDS011;3230;42.588;23.358;2023-03-23T08:01:59;8.00;;;5.63;;
6394;SDS011;3230;42.588;23.358;2023-03-23T08:04:24;6.10;;;5.23;;
6394;SDS011;3230;42.588;23.358;2023-03-23T08:06:49;7.13;;;5.40;;
6394;SDS011;3230;42.588;23.358;2023-03-23T08:09:15;7.87;;;5.70;;
6394;SDS011;3230;42.588;23.358;2023-03-23T08:11:41;6.37;;;5.00;;
6394;SDS011;3230;42.588;23.358;2023-03-23T08:14:06;11.63;;;6.30;;
6394;SDS011;3230;42.588;23.358;2023-03-23T08:16:32;9.50;;;6.60;;
6394;SDS011;3230;42.588;23.358;2023-03-23T08:19:01;9.50;;;6.37;;
6394;SDS011;3230;42.588;23.358;2023-03-23T08:21:27;6.50;;;4.70;;
6394;SDS011;3230;42.588;23.358;2023-03-23T08:23:52;8.17;;;5.90;;
6394;SDS011;3230;42.588;23.358;2023-03-23T08:26:18;6.93;;;5.17;;
6394;SDS011;3230;42.588;23.358;2023-03-23T08:28:44;8.47;;;5.93;;
6394;SDS011;3230;42.588;23.358;2023-03-23T08:31:10;8.13;;;5.23;;
6394;SDS011;3230;42.588;23.358;2023-03-23T08:33:37;8.17;;;5.70;;
6394;SDS011;3230;42.588;23.358;2023-03-23T08:36:03;9.40;;;6.03;;
6394;SDS011;3230;42.588;23.358;2023-03-23T08:38:29;8.60;;;5.53;;
6394;SDS011;3230;42.588;23.358;2023-03-23T08:40:59;6.93;;;5.40;;
6394;SDS011;3230;42.588;23.358;2023-03-23T08:43:30;8.30;;;4.87;;
6394;SDS011;3230;42.588;23.358;2023-03-23T08:45:57;7.70;;;5.57;;
6394;SDS011;3230;42.588;23.358;2023-03-23T08:48:23;7.17;;;4.70;;
6394;SDS011;3230;42.588;23.358;2023-03-23T08:50:49;7.47;;;5.57;;
6394;SDS011;3230;42.588;23.358;2023-03-23T08:53:15;7.33;;;5.10;;
6394;SDS011;3230;42.588;23.358;2023-03-23T08:55:41;6.70;;;5.03;;
6394;SDS011;3230;42.588;23.358;2023-03-23T08:58:07;8.40;;;6.23;;
6394;SDS011;3230;42.588;23.358;2023-03-23T09:00:33;28.53;;;7.53;;
6394;SDS011;3230;42.588;23.358;2023-03-23T09:02:59;11.47;;;5.73;;
6394;SDS011;3230;42.588;23.358;2023-03-23T09:05:26;18.47;;;7.93;;
6394;SDS011;3230;42.588;23.358;2023-03-23T09:07:54;7.90;;;5.90;;
6394;SDS011;3230;42.588;23.358;2023-03-23T09:10:23;7.50;;;5.60;;
6394;SDS011;3230;42.588;23.358;2023-03-23T09:12:51;7.40;;;5.63;;
6394;SDS011;3230;42.588;23.358;2023-03-23T09:15:17;7.20;;;5.77;;
6394;SDS011;3230;42.588;23.358;2023-03-23T09:17:47;8.77;;;5.93;;
6394;SDS011;3230;42.588;23.358;2023-03-23T09:20:15;8.03;;;5.70;;
6394;SDS011;3230;42.588;23.358;2023-03-23T09:22:46;7.90;;;5.33;;
6394;SDS011;3230;42.588;23.358;2023-03-23T09:25:13;7.77;;;5.10;;
6394;SDS011;3230;42.588;23.358;2023-03-23T09:27:41;8.07;;;5.90;;
6394;SDS011;3230;42.588;23.358;2023-03-23T09:30:11;7.80;;;5.33;;
6394;SDS011;3230;42.588;23.358;2023-03-23T09:32:37;6.90;;;4.50;;
6394;SDS011;3230;42.588;23.358;2023-03-23T09:35:05;9.47;;;5.53;;
6394;SDS011;3230;42.588;23.358;2023-03-23T09:37:33;7.70;;;5.33;;
6394;SDS011;3230;42.588;23.358;2023-03-23T09:40:01;28.40;;;5.37;;
6394;SDS011;3230;42.588;23.358;2023-03-23T09:50:30;9.00;;;5.50;;
6394;SDS011;3230;42.588;23.358;2023-03-23T09:53:07;9.83;;;6.00;;
6394;SDS011;3230;42.588;23.358;2023-03-23T09:55:38;8.43;;;5.40;;
6394;SDS011;3230;42.588;23.358;2023-03-23T09:58:24;8.80;;;5.67;;
6394;SDS011;3230;42.588;23.358;2023-03-23T10:01:09;8.10;;;5.37;;
6394;SDS011;3230;42.588;23.358;2023-03-23T10:03:40;8.70;;;5.73;;
6394;SDS011;3230;42.588;23.358;2023-03-23T10:06:09;8.10;;;5.33;;
6394;SDS011;3230;42.588;23.358;2023-03-23T10:08:38;10.77;;;6.20;;
6394;SDS011;3230;42.588;23.358;2023-03-23T10:11:23;8.63;;;5.63;;
6394;SDS011;3230;42.588;23.358;2023-03-23T10:16:54;10.17;;;5.07;;
6394;SDS011;3230;42.588;23.358;2023-03-23T10:20:01;7.77;;;5.40;;
6394;SDS011;3230;42.588;23.358;2023-03-23T10:22:42;8.10;;;5.70;;
6394;SDS011;3230;42.588;23.358;2023-03-23T10:25:19;7.97;;;4.70;;
6394;SDS011;3230;42.588;23.358;2023-03-23T10:30:30;7.80;;;5.03;;
6394;SDS011;3230;42.588;23.358;2023-03-23T10:33:10;8.23;;;5.37;;
6394;SDS011;3230;42.588;23.358;2023-03-23T10:38:17;11.83;;;5.37;;
6394;SDS011;3230;42.588;23.358;2023-03-23T10:40:54;9.70;;;5.00;;
6394;SDS011;3230;42.588;23.358;2023-03-23T10:43:23;7.50;;;5.07;;
6394;SDS011;3230;42.588;23.358;2023-03-23T10:45:55;8.13;;;5.37;;
6394;SDS011;3230;42.588;23.358;2023-03-23T10:48:33;6.77;;;4.50;;
6394;SDS011;3230;42.588;23.358;2023-03-23T10:51:03;7.80;;;5.13;;
6394;SDS011;3230;42.588;23.358;2023-03-23T10:53:35;7.37;;;5.07;;
6394;SDS011;3230;42.588;23.358;2023-03-23T10:56:02;6.83;;;5.10;;
6394;SDS011;3230;42.588;23.358;2023-03-23T10:58:30;7.13;;;5.10;;
6394;SDS011;3230;42.588;23.358;2023-03-23T11:01:01;6.83;;;4.93;;
6394;SDS011;3230;42.588;23.358;2023-03-23T11:06:08;8.50;;;6.00;;
6394;SDS011;3230;42.588;23.358;2023-03-23T11:08:37;8.60;;;5.30;;
6394;SDS011;3230;42.588;23.358;2023-03-23T11:11:18;11.63;;;7.50;;
6394;SDS011;3230;42.588;23.358;2023-03-23T11:13:56;8.00;;;5.60;;
6394;SDS011;3230;42.588;23.358;2023-03-23T11:16:42;8.20;;;5.20;;
6394;SDS011;3230;42.588;23.358;2023-03-23T11:19:13;7.23;;;5.03;;
6394;SDS011;3230;42.588;23.358;2023-03-23T11:21:40;7.43;;;5.63;;
6394;SDS011;3230;42.588;23.358;2023-03-23T11:24:12;8.77;;;6.03;;
6394;SDS011;3230;42.588;23.358;2023-03-23T11:26:38;9.33;;;6.03;;
6394;SDS011;3230;42.588;23.358;2023-03-23T11:29:05;9.10;;;6.30;;
6394;SDS011;3230;42.588;23.358;2023-03-23T11:31:39;8.37;;;6.00;;
6394;SDS011;3230;42.588;23.358;2023-03-23T11:36:50;10.50;;;6.40;;
6394;SDS011;3230;42.588;23.358;2023-03-23T11:39:25;8.83;;;6.13;;
6394;SDS011;3230;42.588;23.358;2023-03-23T11:41:57;9.73;;;5.83;;
6394;SDS011;3230;42.588;23.358;2023-03-23T11:44:32;7.70;;;5.60;;
6394;SDS011;3230;42.588;23.358;2023-03-23T11:50:12;12.10;;;6.33;;
6394;SDS011;3230;42.588;23.358;2023-03-23T11:58:21;7.53;;;5.47;;
6394;SDS011;3230;42.588;23.358;2023-03-23T12:00:57;9.50;;;6.10;;
6394;SDS011;3230;42.588;23.358;2023-03-23T12:03:31;8.30;;;5.87;;
6394;SDS011;3230;42.588;23.358;2023-03-23T12:06:54;8.30;;;5.47;;
6394;SDS011;3230;42.588;23.358;2023-03-23T12:20:31;7.97;;;5.13;;
6394;SDS011;3230;42.588;23.358;2023-03-23T12:25:43;7.20;;;5.40;;
6394;SDS011;3230;42.588;23.358;2023-03-23T12:33:51;8.80;;;5.80;;
6394;SDS011;3230;42.588;23.358;2023-03-23T12:44:33;7.27;;;5.00;;
6394;SDS011;3230;42.588;23.358;2023-03-23T12:49:35;6.70;;;5.10;;
6394;SDS011;3230;42.588;23.358;2023-03-23T12:54:39;11.40;;;5.77;;
6394;SDS011;3230;42.588;23.358;2023-03-23T12:57:12;10.80;;;5.47;;
6394;SDS011;3230;42.588;23.358;2023-03-23T12:59:46;6.20;;;4.80;;
6394;SDS011;3230;42.588;23.358;2023-03-23T13:04:55;6.90;;;4.60;;
6394;SDS011;3230;42.588;23.358;2023-03-23T13:07:29;9.30;;;5.17;;
6394;SDS011;3230;42.588;23.358;2023-03-23T13:12:29;7.63;;;5.20;;
6394;SDS011;3230;42.588;23.358;2023-03-23T13:18:13;6.87;;;4.90;;
6394;SDS011;3230;42.588;23.358;2023-03-23T13:23:36;9.23;;;5.57;;
6394;SDS011;3230;42.588;23.358;2023-03-23T13:26:09;7.33;;;5.03;;
6394;SDS011;3230;42.588;23.358;2023-03-23T13:28:48;8.80;;;4.70;;
6394;SDS011;3230;42.588;23.358;2023-03-23T13:31:21;6.83;;;5.13;;
6394;SDS011;3230;42.588;23.358;2023-03-23T13:34:02;8.70;;;5.57;;
6394;SDS011;3230;42.588;23.358;2023-03-23T13:38:54;7.37;;;5.17;;
6394;SDS011;3230;42.588;23.358;2023-03-23T13:41:22;6.90;;;4.40;;
6394;SDS011;3230;42.588;23.358;2023-03-23T13:43:48;7.80;;;5.43;;
6394;SDS011;3230;42.588;23.358;2023-03-23T13:46:27;8.77;;;5.50;;
6394;SDS011;3230;42.588;23.358;2023-03-23T13:57:20;7.00;;;5.20;;
6394;SDS011;3230;42.588;23.358;2023-03-23T14:04:54;6.90;;;4.27;;
6394;SDS011;3230;42.588;23.358;2023-03-23T14:07:20;7.43;;;4.70;;
6394;SDS011;3230;42.588;23.358;2023-03-23T14:09:45;8.80;;;4.93;;
6394;SDS011;3230;42.588;23.358;2023-03-23T14:12:22;6.90;;;4.50;;
6394;SDS011;3230;42.588;23.358;2023-03-23T14:14:56;9.23;;;5.53;;
6394;SDS011;3230;42.588;23.358;2023-03-23T14:17:29;8.50;;;5.67;;
6394;SDS011;3230;42.588;23.358;2023-03-23T14:19:58;10.93;;;6.63;;
6394;SDS011;3230;42.588;23.358;2023-03-23T14:24:59;8.50;;;4.87;;
6394;SDS011;3230;42.588;23.358;2023-03-23T14:27:26;8.23;;;5.40;;
6394;SDS011;3230;42.588;23.358;2023-03-23T14:29:59;9.90;;;5.80;;
6394;SDS011;3230;42.588;23.358;2023-03-23T14:32:27;7.00;;;5.37;;
6394;SDS011;3230;42.588;23.358;2023-03-23T14:34:54;7.90;;;5.20;;
6394;SDS011;3230;42.588;23.358;2023-03-23T14:37:20;7.83;;;5.20;;
6394;SDS011;3230;42.588;23.358;2023-03-23T14:39:51;9.60;;;5.80;;
6394;SDS011;3230;42.588;23.358;2023-03-23T14:42:19;7.00;;;4.90;;
6394;SDS011;3230;42.588;23.358;2023-03-23T14:44:52;8.90;;;5.77;;
6394;SDS011;3230;42.588;23.358;2023-03-23T14:47:22;12.50;;;5.83;;
6394;SDS011;3230;42.588;23.358;2023-03-23T14:49:55;8.77;;;5.77;;
6394;SDS011;3230;42.588;23.358;2023-03-23T14:52:23;8.37;;;5.70;;
6394;SDS011;3230;42.588;23.358;2023-03-23T14:54:51;7.37;;;5.00;;
6394;SDS011;3230;42.588;23.358;2023-03-23T14:57:25;8.00;;;5.10;;
6394;SDS011;3230;42.588;23.358;2023-03-23T14:59:54;8.37;;;4.97;;
6394;SDS011;3230;42.588;23.358;2023-03-23T15:02:29;12.57;;;5.27;;
6394;SDS011;3230;42.588;23.358;2023-03-23T15:05:08;10.43;;;5.93;;
6394;SDS011;3230;42.588;23.358;2023-03-23T15:07:38;8.90;;;4.87;;
6394;SDS011;3230;42.588;23.358;2023-03-23T15:10:06;8.27;;;5.40;;
6394;SDS011;3230;42.588;23.358;2023-03-23T15:12:33;8.10;;;6.17;;
6394;SDS011;3230;42.588;23.358;2023-03-23T15:15:00;9.20;;;5.40;;
6394;SDS011;3230;42.588;23.358;2023-03-23T15:17:31;7.80;;;5.30;;
6394;SDS011;3230;42.588;23.358;2023-03-23T15:20:18;9.50;;;4.97;;
6394;SDS011;3230;42.588;23.358;2023-03-23T15:22:48;8.67;;;5.90;;
6394;SDS011;3230;42.588;23.358;2023-03-23T15:27:55;8.00;;;5.27;;
6394;SDS011;3230;42.588;23.358;2023-03-23T15:32:47;7.17;;;4.83;;
6394;SDS011;3230;42.588;23.358;2023-03-23T15:35:17;9.33;;;5.33;;
6394;SDS011;3230;42.588;23.358;2023-03-23T15:37:48;10.70;;;5.27;;
6394;SDS011;3230;42.588;23.358;2023-03-23T15:40:18;10.70;;;6.13;;
6394;SDS011;3230;42.588;23.358;2023-03-23T15:42:46;13.70;;;8.40;;
6394;SDS011;3230;42.588;23.358;2023-03-23T15:52:35;7.50;;;4.80;;
6394;SDS011;3230;42.588;23.358;2023-03-23T15:55:01;8.60;;;4.60;;
6394;SDS011;3230;42.588;23.358;2023-03-23T15:57:26;12.50;;;5.80;;
6394;SDS011;3230;42.588;23.358;2023-03-23T15:59:52;17.53;;;7.60;;
6394;SDS011;3230;42.588;23.358;2023-03-23T16:02:21;10.17;;;6.70;;
6394;SDS011;3230;42.588;23.358;2023-03-23T16:04:49;16.83;;;7.77;;
6394;SDS011;3230;42.588;23.358;2023-03-23T16:07:16;18.77;;;10.17;;
6394;SDS011;3230;42.588;23.358;2023-03-23T16:09:46;13.83;;;8.80;;
6394;SDS011;3230;42.588;23.358;2023-03-23T16:12:11;15.13;;;8.27;;
6394;SDS011;3230;42.588;23.358;2023-03-23T16:14:38;14.43;;;7.93;;
6394;SDS011;3230;42.588;23.358;2023-03-23T16:17:04;16.23;;;9.30;;
6394;SDS011;3230;42.588;23.358;2023-03-23T16:19:29;16.10;;;9.60;;
6394;SDS011;3230;42.588;23.358;2023-03-23T16:21:55;24.40;;;10.10;;
6394;SDS011;3230;42.588;23.358;2023-03-23T16:24:21;18.67;;;9.07;;
6394;SDS011;3230;42.588;23.358;2023-03-23T16:26:46;12.10;;;7.60;;
6394;SDS011;3230;42.588;23.358;2023-03-23T16:29:12;14.33;;;9.63;;
6394;SDS011;3230;42.588;23.358;2023-03-23T16:31:40;19.60;;;7.90;;
6394;SDS011;3230;42.588;23.358;2023-03-23T16:34:05;11.50;;;6.80;;
6394;SDS011;3230;42.588;23.358;2023-03-23T16:36:32;10.17;;;6.50;;
6394;SDS011;3230;42.588;23.358;2023-03-23T16:38:57;15.73;;;8.17;;
6394;SDS011;3230;42.588;23.358;2023-03-23T16:41:23;17.07;;;9.63;;
6394;SDS011;3230;42.588;23.358;2023-03-23T16:43:48;20.03;;;10.30;;
6394;SDS011;3230;42.588;23.358;2023-03-23T16:46:14;15.87;;;9.57;;
6394;SDS011;3230;42.588;23.358;2023-03-23T16:48:39;16.60;;;9.60;;
6394;SDS011;3230;42.588;23.358;2023-03-23T16:51:05;20.23;;;9.60;;
6394;SDS011;3230;42.588;23.358;2023-03-23T16:53:31;17.87;;;9.93;;
6394;SDS011;3230;42.588;23.358;2023-03-23T16:55:57;30.60;;;11.87;;
6394;SDS011;3230;42.588;23.358;2023-03-23T16:58:23;39.90;;;17.70;;
6394;SDS011;3230;42.588;23.358;2023-03-23T17:00:49;39.53;;;18.20;;
6394;SDS011;3230;42.588;23.358;2023-03-23T17:03:19;60.23;;;25.83;;
6394;SDS011;3230;42.588;23.358;2023-03-23T17:05:46;48.97;;;22.07;;
6394;SDS011;3230;42.588;23.358;2023-03-23T17:08:13;45.70;;;18.60;;
6394;SDS011;3230;42.588;23.358;2023-03-23T17:10:40;39.00;;;18.23;;
6394;SDS011;3230;42.588;23.358;2023-03-23T17:13:07;64.23;;;29.30;;
6394;SDS011;3230;42.588;23.358;2023-03-23T17:15:35;62.57;;;30.80;;